sensor_id;sensor_type;location;lat;lon;timestamp;P1;durP1;ratioP1;P2;durP2;ratioP2
57131;SDS011;43005;52.922;5.742;2023-08-31T00:01:04;4.95;;;2.97;;
57131;SDS011;43005;52.922;5.742;2023-08-31T00:03:31;5.75;;;3.00;;
57131;SDS011;43005;52.922;5.742;2023-08-31T00:06:01;4.40;;;3.05;;
57131;SDS011;43005;52.922;5.742;2023-08-31T00:08:28;7.55;;;3.40;;
57131;SDS011;43005;52.922;5.742;2023-08-31T00:10:56;4.22;;;3.00;;
57131;SDS011;43005;52.922;5.742;2023-08-31T00:13:24;5.97;;;3.13;;
57131;SDS011;43005;52.922;5.742;2023-08-31T00:15:53;4.82;;;3.38;;
57131;SDS011;43005;52.922;5.742;2023-08-31T00:18:22;5.18;;;3.30;;
57131;SDS011;43005;52.922;5.742;2023-08-31T00:20:49;3.70;;;3.30;;
57131;SDS011;43005;52.922;5.742;2023-08-31T00:23:16;4.82;;;3.60;;
57131;SDS011;43005;52.922;5.742;2023-08-31T00:25:44;3.70;;;3.30;;
57131;SDS011;43005;52.922;5.742;2023-08-31T00:28:11;5.32;;;3.50;;
57131;SDS011;43005;52.922;5.742;2023-08-31T00:30:41;3.92;;;3.35;;
57131;SDS011;43005;52.922;5.742;2023-08-31T00:33:09;5.38;;;3.40;;
57131;SDS011;43005;52.922;5.742;2023-08-31T00:35:36;4.35;;;3.10;;
57131;SDS011;43005;52.922;5.742;2023-08-31T00:38:09;4.55;;;3.38;;
57131;SDS011;43005;52.922;5.742;2023-08-31T00:40:38;4.85;;;3.70;;
57131;SDS011;43005;52.922;5.742;2023-08-31T00:43:10;4.45;;;3.50;;
57131;SDS011;43005;52.922;5.742;2023-08-31T00:45:38;4.22;;;3.60;;
57131;SDS011;43005;52.922;5.742;2023-08-31T00:48:08;4.78;;;3.30;;
57131;SDS011;43005;52.922;5.742;2023-08-31T00:50:35;6.75;;;3.13;;
57131;SDS011;43005;52.922;5.742;2023-08-31T00:53:02;4.80;;;3.50;;
57131;SDS011;43005;52.922;5.742;2023-08-31T00:55:29;5.68;;;3.80;;
57131;SDS011;43005;52.922;5.742;2023-08-31T00:57:57;4.65;;;3.20;;
57131;SDS011;43005;52.922;5.742;2023-08-31T01:00:25;4.65;;;3.42;;
57131;SDS011;43005;52.922;5.742;2023-08-31T01:02:59;4.85;;;3.60;;
57131;SDS011;43005;52.922;5.742;2023-08-31T01:05:36;4.57;;;3.53;;
57131;SDS011;43005;52.922;5.742;2023-08-31T01:08:12;6.38;;;3.40;;
57131;SDS011;43005;52.922;5.742;2023-08-31T01:10:47;5.88;;;3.55;;
57131;SDS011;43005;52.922;5.742;2023-08-31T01:13:25;7.47;;;3.67;;
57131;SDS011;43005;52.922;5.742;2023-08-31T01:15:56;4.47;;;3.70;;
57131;SDS011;43005;52.922;5.742;2023-08-31T01:18:29;4.38;;;3.75;;
57131;SDS011;43005;52.922;5.742;2023-08-31T01:21:00;5.25;;;3.60;;
57131;SDS011;43005;52.922;5.742;2023-08-31T01:23:49;5.88;;;3.45;;
57131;SDS011;43005;52.922;5.742;2023-08-31T01:26:18;10.88;;;4.65;;
57131;SDS011;43005;52.922;5.742;2023-08-31T01:28:45;6.82;;;3.75;;
57131;SDS011;43005;52.922;5.742;2023-08-31T01:31:13;4.97;;;3.90;;
57131;SDS011;43005;52.922;5.742;2023-08-31T01:33:40;4.95;;;3.60;;
57131;SDS011;43005;52.922;5.742;2023-08-31T01:36:07;6.97;;;3.85;;
57131;SDS011;43005;52.922;5.742;2023-08-31T01:38:38;4.82;;;3.47;;
57131;SDS011;43005;52.922;5.742;2023-08-31T01:41:13;7.82;;;4.00;;
57131;SDS011;43005;52.922;5.742;2023-08-31T01:43:42;8.35;;;3.60;;
57131;SDS011;43005;52.922;5.742;2023-08-31T01:46:10;5.35;;;3.47;;
57131;SDS011;43005;52.922;5.742;2023-08-31T01:48:38;4.78;;;3.67;;
57131;SDS011;43005;52.922;5.742;2023-08-31T01:51:06;7.13;;;3.67;;
57131;SDS011;43005;52.922;5.742;2023-08-31T01:53:34;7.65;;;4.10;;
57131;SDS011;43005;52.922;5.742;2023-08-31T01:56:01;5.40;;;4.40;;
57131;SDS011;43005;52.922;5.742;2023-08-31T01:58:31;7.93;;;4.18;;
57131;SDS011;43005;52.922;5.742;2023-08-31T02:00:58;7.72;;;4.00;;
57131;SDS011;43005;52.922;5.742;2023-08-31T02:03:25;7.05;;;4.22;;
57131;SDS011;43005;52.922;5.742;2023-08-31T02:05:52;7.05;;;4.30;;
57131;SDS011;43005;52.922;5.742;2023-08-31T02:08:19;7.30;;;4.35;;
57131;SDS011;43005;52.922;5.742;2023-08-31T02:10:46;7.93;;;4.40;;
57131;SDS011;43005;52.922;5.742;2023-08-31T02:13:13;9.20;;;4.60;;
57131;SDS011;43005;52.922;5.742;2023-08-31T02:15:42;5.72;;;4.10;;
57131;SDS011;43005;52.922;5.742;2023-08-31T02:18:09;7.35;;;4.15;;
57131;SDS011;43005;52.922;5.742;2023-08-31T02:20:36;7.43;;;4.25;;
57131;SDS011;43005;52.922;5.742;2023-08-31T02:23:04;7.82;;;4.10;;
57131;SDS011;43005;52.922;5.742;2023-08-31T02:25:30;6.63;;;4.28;;
57131;SDS011;43005;52.922;5.742;2023-08-31T02:27:58;9.57;;;4.10;;
57131;SDS011;43005;52.922;5.742;2023-08-31T02:30:25;6.47;;;3.90;;
57131;SDS011;43005;52.922;5.742;2023-08-31T02:32:53;8.45;;;4.10;;
57131;SDS011;43005;52.922;5.742;2023-08-31T02:35:20;6.55;;;4.00;;
57131;SDS011;43005;52.922;5.742;2023-08-31T02:37:47;6.07;;;3.92;;
57131;SDS011;43005;52.922;5.742;2023-08-31T02:40:14;9.85;;;4.43;;
57131;SDS011;43005;52.922;5.742;2023-08-31T02:42:42;7.57;;;4.47;;
57131;SDS011;43005;52.922;5.742;2023-08-31T02:45:09;5.47;;;3.75;;
57131;SDS011;43005;52.922;5.742;2023-08-31T02:47:36;7.38;;;3.80;;
57131;SDS011;43005;52.922;5.742;2023-08-31T02:50:05;8.10;;;4.10;;
57131;SDS011;43005;52.922;5.742;2023-08-31T02:52:33;6.90;;;3.70;;
57131;SDS011;43005;52.922;5.742;2023-08-31T02:55:00;7.60;;;4.10;;
57131;SDS011;43005;52.922;5.742;2023-08-31T03:00:04;8.55;;;4.95;;
57131;SDS011;43005;52.922;5.742;2023-08-31T03:02:37;7.90;;;4.25;;
57131;SDS011;43005;52.922;5.742;2023-08-31T03:05:06;7.30;;;3.80;;
57131;SDS011;43005;52.922;5.742;2023-08-31T03:07:34;7.60;;;4.10;;
57131;SDS011;43005;52.922;5.742;2023-08-31T03:10:01;43.95;;;41.13;;
57131;SDS011;43005;52.922;5.742;2023-08-31T03:12:28;67.07;;;63.50;;
57131;SDS011;43005;52.922;5.742;2023-08-31T03:14:55;69.95;;;66.57;;
57131;SDS011;43005;52.922;5.742;2023-08-31T03:17:22;75.55;;;71.47;;
57131;SDS011;43005;52.922;5.742;2023-08-31T03:19:49;80.05;;;76.28;;
57131;SDS011;43005;52.922;5.742;2023-08-31T03:22:17;78.32;;;74.68;;
57131;SDS011;43005;52.922;5.742;2023-08-31T03:24:44;83.28;;;78.95;;
57131;SDS011;43005;52.922;5.742;2023-08-31T03:27:11;81.15;;;76.85;;
57131;SDS011;43005;52.922;5.742;2023-08-31T03:29:38;80.18;;;76.28;;
57131;SDS011;43005;52.922;5.742;2023-08-31T03:32:05;82.65;;;78.82;;
57131;SDS011;43005;52.922;5.742;2023-08-31T03:34:32;77.30;;;73.60;;
57131;SDS011;43005;52.922;5.742;2023-08-31T03:36:59;78.22;;;74.30;;
57131;SDS011;43005;52.922;5.742;2023-08-31T03:39:28;79.13;;;75.40;;
57131;SDS011;43005;52.922;5.742;2023-08-31T03:41:55;79.07;;;75.13;;
57131;SDS011;43005;52.922;5.742;2023-08-31T03:44:22;80.03;;;76.28;;
57131;SDS011;43005;52.922;5.742;2023-08-31T03:46:49;78.65;;;74.57;;
57131;SDS011;43005;52.922;5.742;2023-08-31T03:49:16;75.75;;;71.95;;
57131;SDS011;43005;52.922;5.742;2023-08-31T03:51:43;73.57;;;70.18;;
57131;SDS011;43005;52.922;5.742;2023-08-31T03:54:10;70.50;;;66.88;;
57131;SDS011;43005;52.922;5.742;2023-08-31T03:56:39;70.47;;;66.97;;
57131;SDS011;43005;52.922;5.742;2023-08-31T03:59:06;62.42;;;59.00;;
57131;SDS011;43005;52.922;5.742;2023-08-31T04:01:36;70.25;;;66.55;;
57131;SDS011;43005;52.922;5.742;2023-08-31T04:04:03;69.70;;;66.45;;
57131;SDS011;43005;52.922;5.742;2023-08-31T04:06:30;66.30;;;63.03;;
57131;SDS011;43005;52.922;5.742;2023-08-31T04:08:57;67.53;;;64.38;;
57131;SDS011;43005;52.922;5.742;2023-08-31T04:11:24;67.85;;;64.57;;
57131;SDS011;43005;52.922;5.742;2023-08-31T04:13:53;65.82;;;62.28;;
57131;SDS011;43005;52.922;5.742;2023-08-31T04:16:20;61.53;;;57.95;;
57131;SDS011;43005;52.922;5.742;2023-08-31T04:18:47;62.97;;;60.05;;
57131;SDS011;43005;52.922;5.742;2023-08-31T04:21:16;59.15;;;56.35;;
57131;SDS011;43005;52.922;5.742;2023-08-31T04:23:43;62.63;;;59.72;;
57131;SDS011;43005;52.922;5.742;2023-08-31T04:26:10;60.65;;;57.65;;
57131;SDS011;43005;52.922;5.742;2023-08-31T04:28:38;56.83;;;53.83;;
57131;SDS011;43005;52.922;5.742;2023-08-31T04:31:07;59.65;;;56.72;;
57131;SDS011;43005;52.922;5.742;2023-08-31T04:33:34;51.67;;;49.17;;
57131;SDS011;43005;52.922;5.742;2023-08-31T04:36:02;56.90;;;53.80;;
57131;SDS011;43005;52.922;5.742;2023-08-31T04:38:29;55.25;;;52.53;;
57131;SDS011;43005;52.922;5.742;2023-08-31T04:40:57;55.40;;;52.42;;
57131;SDS011;43005;52.922;5.742;2023-08-31T04:43:25;54.55;;;51.75;;
57131;SDS011;43005;52.922;5.742;2023-08-31T04:45:52;55.05;;;52.47;;
57131;SDS011;43005;52.922;5.742;2023-08-31T04:48:21;52.22;;;49.63;;
57131;SDS011;43005;52.922;5.742;2023-08-31T04:50:48;50.05;;;47.53;;
57131;SDS011;43005;52.922;5.742;2023-08-31T04:53:15;48.60;;;46.20;;
57131;SDS011;43005;52.922;5.742;2023-08-31T04:55:42;48.90;;;46.42;;
57131;SDS011;43005;52.922;5.742;2023-08-31T04:58:09;47.90;;;45.10;;
57131;SDS011;43005;52.922;5.742;2023-08-31T05:00:36;45.13;;;42.70;;
57131;SDS011;43005;52.922;5.742;2023-08-31T05:03:04;47.40;;;44.90;;
57131;SDS011;43005;52.922;5.742;2023-08-31T05:05:33;47.28;;;44.88;;
57131;SDS011;43005;52.922;5.742;2023-08-31T05:08:00;44.45;;;41.88;;
57131;SDS011;43005;52.922;5.742;2023-08-31T05:10:28;47.53;;;44.83;;
57131;SDS011;43005;52.922;5.742;2023-08-31T05:12:54;43.58;;;41.28;;
57131;SDS011;43005;52.922;5.742;2023-08-31T05:15:21;42.85;;;40.47;;
57131;SDS011;43005;52.922;5.742;2023-08-31T05:17:52;42.67;;;40.17;;
57131;SDS011;43005;52.922;5.742;2023-08-31T05:20:19;40.78;;;38.25;;
57131;SDS011;43005;52.922;5.742;2023-08-31T05:22:49;39.97;;;37.20;;
57131;SDS011;43005;52.922;5.742;2023-08-31T05:25:16;41.45;;;39.08;;
57131;SDS011;43005;52.922;5.742;2023-08-31T05:27:43;41.22;;;38.85;;
57131;SDS011;43005;52.922;5.742;2023-08-31T05:30:10;39.38;;;37.17;;
57131;SDS011;43005;52.922;5.742;2023-08-31T05:32:38;41.58;;;39.10;;
57131;SDS011;43005;52.922;5.742;2023-08-31T05:35:05;40.75;;;38.22;;
57131;SDS011;43005;52.922;5.742;2023-08-31T05:37:32;41.10;;;38.75;;
57131;SDS011;43005;52.922;5.742;2023-08-31T05:40:02;41.90;;;39.53;;
57131;SDS011;43005;52.922;5.742;2023-08-31T05:42:35;38.90;;;36.83;;
57131;SDS011;43005;52.922;5.742;2023-08-31T05:45:02;39.05;;;36.72;;
57131;SDS011;43005;52.922;5.742;2023-08-31T05:47:29;39.05;;;36.65;;
57131;SDS011;43005;52.922;5.742;2023-08-31T05:49:56;38.50;;;36.30;;
57131;SDS011;43005;52.922;5.742;2023-08-31T05:52:23;37.70;;;35.25;;
57131;SDS011;43005;52.922;5.742;2023-08-31T05:54:50;36.33;;;34.22;;
57131;SDS011;43005;52.922;5.742;2023-08-31T05:57:19;34.78;;;32.15;;
57131;SDS011;43005;52.922;5.742;2023-08-31T05:59:47;32.45;;;30.45;;
57131;SDS011;43005;52.922;5.742;2023-08-31T06:02:14;28.25;;;26.33;;
57131;SDS011;43005;52.922;5.742;2023-08-31T06:04:41;24.85;;;23.45;;
57131;SDS011;43005;52.922;5.742;2023-08-31T06:07:08;20.55;;;19.33;;
57131;SDS011;43005;52.922;5.742;2023-08-31T06:09:34;19.52;;;17.92;;
57131;SDS011;43005;52.922;5.742;2023-08-31T06:12:05;17.98;;;16.63;;
57131;SDS011;43005;52.922;5.742;2023-08-31T06:14:34;16.90;;;15.35;;
57131;SDS011;43005;52.922;5.742;2023-08-31T06:17:01;14.43;;;13.00;;
57131;SDS011;43005;52.922;5.742;2023-08-31T06:19:28;13.10;;;12.10;;
57131;SDS011;43005;52.922;5.742;2023-08-31T06:21:55;10.27;;;9.38;;
57131;SDS011;43005;52.922;5.742;2023-08-31T06:24:22;9.95;;;8.93;;
57131;SDS011;43005;52.922;5.742;2023-08-31T06:26:49;11.50;;;7.57;;
57131;SDS011;43005;52.922;5.742;2023-08-31T06:29:17;8.27;;;5.18;;
57131;SDS011;43005;52.922;5.742;2023-08-31T06:31:45;6.22;;;4.53;;
57131;SDS011;43005;52.922;5.742;2023-08-31T06:34:12;8.52;;;2.45;;
57131;SDS011;43005;52.922;5.742;2023-08-31T06:36:39;6.40;;;3.10;;
57131;SDS011;43005;52.922;5.742;2023-08-31T06:39:06;4.35;;;2.60;;
57131;SDS011;43005;52.922;5.742;2023-08-31T06:41:34;5.38;;;2.45;;
57131;SDS011;43005;52.922;5.742;2023-08-31T06:44:01;7.22;;;2.72;;
57131;SDS011;43005;52.922;5.742;2023-08-31T06:46:29;5.30;;;2.80;;
57131;SDS011;43005;52.922;5.742;2023-08-31T06:49:00;3.60;;;1.63;;
57131;SDS011;43005;52.922;5.742;2023-08-31T06:51:27;4.93;;;1.90;;
57131;SDS011;43005;52.922;5.742;2023-08-31T06:53:54;8.82;;;2.22;;
57131;SDS011;43005;52.922;5.742;2023-08-31T06:56:21;4.50;;;2.03;;
57131;SDS011;43005;52.922;5.742;2023-08-31T06:58:48;3.30;;;2.10;;
57131;SDS011;43005;52.922;5.742;2023-08-31T07:01:15;3.75;;;1.83;;
57131;SDS011;43005;52.922;5.742;2023-08-31T07:03:42;4.85;;;2.00;;
57131;SDS011;43005;52.922;5.742;2023-08-31T07:06:10;5.65;;;1.77;;
57131;SDS011;43005;52.922;5.742;2023-08-31T07:08:37;3.45;;;1.25;;
57131;SDS011;43005;52.922;5.742;2023-08-31T07:11:05;3.75;;;1.60;;
57131;SDS011;43005;52.922;5.742;2023-08-31T07:13:32;2.72;;;1.10;;
57131;SDS011;43005;52.922;5.742;2023-08-31T07:15:59;4.22;;;1.55;;
57131;SDS011;43005;52.922;5.742;2023-08-31T07:18:27;3.72;;;1.08;;
57131;SDS011;43005;52.922;5.742;2023-08-31T07:20:54;3.17;;;0.98;;
57131;SDS011;43005;52.922;5.742;2023-08-31T07:23:22;4.55;;;1.60;;
57131;SDS011;43005;52.922;5.742;2023-08-31T07:25:49;3.38;;;0.88;;
57131;SDS011;43005;52.922;5.742;2023-08-31T07:28:16;4.47;;;1.20;;
57131;SDS011;43005;52.922;5.742;2023-08-31T07:30:43;4.63;;;1.38;;
57131;SDS011;43005;52.922;5.742;2023-08-31T07:33:10;4.57;;;1.40;;
57131;SDS011;43005;52.922;5.742;2023-08-31T07:35:37;3.72;;;1.40;;
57131;SDS011;43005;52.922;5.742;2023-08-31T07:38:04;3.42;;;1.63;;
57131;SDS011;43005;52.922;5.742;2023-08-31T07:40:32;4.03;;;1.70;;
57131;SDS011;43005;52.922;5.742;2023-08-31T07:42:59;5.97;;;2.22;;
57131;SDS011;43005;52.922;5.742;2023-08-31T07:45:26;5.00;;;1.20;;
57131;SDS011;43005;52.922;5.742;2023-08-31T07:47:53;5.30;;;2.08;;
57131;SDS011;43005;52.922;5.742;2023-08-31T07:50:20;5.65;;;1.40;;
57131;SDS011;43005;52.922;5.742;2023-08-31T07:52:47;5.30;;;1.20;;
57131;SDS011;43005;52.922;5.742;2023-08-31T07:55:14;4.03;;;1.05;;
57131;SDS011;43005;52.922;5.742;2023-08-31T07:57:42;3.28;;;1.20;;
57131;SDS011;43005;52.922;5.742;2023-08-31T08:00:10;4.50;;;1.08;;
57131;SDS011;43005;52.922;5.742;2023-08-31T08:02:39;3.30;;;1.00;;
57131;SDS011;43005;52.922;5.742;2023-08-31T08:05:07;0.80;;;0.80;;
57131;SDS011;43005;52.922;5.742;2023-08-31T08:07:34;1.30;;;0.90;;
57131;SDS011;43005;52.922;5.742;2023-08-31T08:10:01;2.88;;;1.10;;
57131;SDS011;43005;52.922;5.742;2023-08-31T08:12:36;1.67;;;0.82;;
57131;SDS011;43005;52.922;5.742;2023-08-31T08:17:33;0.80;;;0.73;;
57131;SDS011;43005;52.922;5.742;2023-08-31T08:20:00;1.40;;;0.73;;
57131;SDS011;43005;52.922;5.742;2023-08-31T08:22:29;1.90;;;0.90;;
57131;SDS011;43005;52.922;5.742;2023-08-31T08:24:56;1.88;;;0.80;;
57131;SDS011;43005;52.922;5.742;2023-08-31T08:27:26;1.90;;;0.85;;
57131;SDS011;43005;52.922;5.742;2023-08-31T08:29:53;2.17;;;0.90;;
57131;SDS011;43005;52.922;5.742;2023-08-31T08:32:21;1.95;;;0.80;;
57131;SDS011;43005;52.922;5.742;2023-08-31T08:34:48;2.55;;;0.85;;
57131;SDS011;43005;52.922;5.742;2023-08-31T08:37:19;2.70;;;1.00;;
57131;SDS011;43005;52.922;5.742;2023-08-31T08:39:47;1.58;;;0.80;;
57131;SDS011;43005;52.922;5.742;2023-08-31T08:42:15;2.47;;;0.80;;
57131;SDS011;43005;52.922;5.742;2023-08-31T08:44:44;1.98;;;0.88;;
57131;SDS011;43005;52.922;5.742;2023-08-31T08:47:12;1.92;;;0.93;;
57131;SDS011;43005;52.922;5.742;2023-08-31T08:49:42;2.70;;;0.88;;
57131;SDS011;43005;52.922;5.742;2023-08-31T08:52:10;2.40;;;1.00;;
57131;SDS011;43005;52.922;5.742;2023-08-31T08:54:38;1.92;;;0.90;;
57131;SDS011;43005;52.922;5.742;2023-08-31T08:57:05;4.32;;;1.00;;
57131;SDS011;43005;52.922;5.742;2023-08-31T08:59:32;2.95;;;1.00;;
57131;SDS011;43005;52.922;5.742;2023-08-31T09:01:59;6.82;;;1.00;;
57131;SDS011;43005;52.922;5.742;2023-08-31T09:04:26;9.05;;;1.25;;
57131;SDS011;43005;52.922;5.742;2023-08-31T09:06:56;3.67;;;1.10;;
57131;SDS011;43005;52.922;5.742;2023-08-31T09:09:23;1.67;;;1.00;;
57131;SDS011;43005;52.922;5.742;2023-08-31T09:11:50;3.60;;;1.30;;
57131;SDS011;43005;52.922;5.742;2023-08-31T09:14:18;2.70;;;1.08;;
57131;SDS011;43005;52.922;5.742;2023-08-31T09:16:45;4.07;;;1.08;;
57131;SDS011;43005;52.922;5.742;2023-08-31T09:19:17;1.75;;;1.00;;
57131;SDS011;43005;52.922;5.742;2023-08-31T09:21:46;4.63;;;1.10;;
57131;SDS011;43005;52.922;5.742;2023-08-31T09:24:15;4.60;;;1.30;;
57131;SDS011;43005;52.922;5.742;2023-08-31T09:26:43;4.32;;;1.30;;
57131;SDS011;43005;52.922;5.742;2023-08-31T09:29:11;6.93;;;1.90;;
57131;SDS011;43005;52.922;5.742;2023-08-31T09:31:41;4.05;;;1.40;;
57131;SDS011;43005;52.922;5.742;2023-08-31T09:34:09;2.30;;;1.10;;
57131;SDS011;43005;52.922;5.742;2023-08-31T09:36:36;3.15;;;1.35;;
57131;SDS011;43005;52.922;5.742;2023-08-31T09:39:05;2.30;;;1.00;;
57131;SDS011;43005;52.922;5.742;2023-08-31T09:41:33;3.72;;;0.88;;
57131;SDS011;43005;52.922;5.742;2023-08-31T09:44:14;4.43;;;1.20;;
57131;SDS011;43005;52.922;5.742;2023-08-31T09:46:43;2.47;;;1.00;;
57131;SDS011;43005;52.922;5.742;2023-08-31T09:49:10;4.93;;;1.23;;
57131;SDS011;43005;52.922;5.742;2023-08-31T09:51:39;4.13;;;1.20;;
57131;SDS011;43005;52.922;5.742;2023-08-31T09:54:11;2.63;;;1.20;;
57131;SDS011;43005;52.922;5.742;2023-08-31T09:56:41;5.28;;;1.67;;
57131;SDS011;43005;52.922;5.742;2023-08-31T09:59:09;4.53;;;1.30;;
57131;SDS011;43005;52.922;5.742;2023-08-31T10:01:37;3.97;;;1.17;;
57131;SDS011;43005;52.922;5.742;2023-08-31T10:04:08;3.80;;;1.20;;
57131;SDS011;43005;52.922;5.742;2023-08-31T10:06:36;3.88;;;1.30;;
57131;SDS011;43005;52.922;5.742;2023-08-31T10:09:06;2.78;;;1.10;;
57131;SDS011;43005;52.922;5.742;2023-08-31T10:11:34;5.10;;;1.52;;
57131;SDS011;43005;52.922;5.742;2023-08-31T10:14:04;3.22;;;1.08;;
57131;SDS011;43005;52.922;5.742;2023-08-31T10:16:32;2.80;;;1.30;;
57131;SDS011;43005;52.922;5.742;2023-08-31T10:18:59;5.65;;;1.63;;
57131;SDS011;43005;52.922;5.742;2023-08-31T10:21:26;3.95;;;1.73;;
57131;SDS011;43005;52.922;5.742;2023-08-31T10:23:53;4.30;;;1.75;;
57131;SDS011;43005;52.922;5.742;2023-08-31T10:26:23;5.88;;;2.47;;
57131;SDS011;43005;52.922;5.742;2023-08-31T10:28:51;6.15;;;3.13;;
57131;SDS011;43005;52.922;5.742;2023-08-31T10:31:20;5.20;;;2.28;;
57131;SDS011;43005;52.922;5.742;2023-08-31T10:33:54;4.25;;;1.45;;
57131;SDS011;43005;52.922;5.742;2023-08-31T10:36:25;7.20;;;1.88;;
57131;SDS011;43005;52.922;5.742;2023-08-31T10:39:04;5.15;;;1.48;;
57131;SDS011;43005;52.922;5.742;2023-08-31T10:41:33;5.25;;;1.60;;
57131;SDS011;43005;52.922;5.742;2023-08-31T10:44:01;4.93;;;1.50;;
57131;SDS011;43005;52.922;5.742;2023-08-31T10:46:31;4.13;;;2.22;;
57131;SDS011;43005;52.922;5.742;2023-08-31T10:49:00;3.80;;;1.90;;
57131;SDS011;43005;52.922;5.742;2023-08-31T10:51:29;5.25;;;2.03;;
57131;SDS011;43005;52.922;5.742;2023-08-31T10:54:06;5.72;;;2.33;;
57131;SDS011;43005;52.922;5.742;2023-08-31T10:56:44;3.00;;;1.50;;
57131;SDS011;43005;52.922;5.742;2023-08-31T10:59:41;6.15;;;1.70;;
57131;SDS011;43005;52.922;5.742;2023-08-31T11:02:13;3.67;;;1.42;;
57131;SDS011;43005;52.922;5.742;2023-08-31T11:04:54;4.32;;;1.38;;
57131;SDS011;43005;52.922;5.742;2023-08-31T11:07:23;2.50;;;1.10;;
57131;SDS011;43005;52.922;5.742;2023-08-31T11:09:51;4.82;;;1.30;;
57131;SDS011;43005;52.922;5.742;2023-08-31T11:12:21;4.03;;;1.30;;
57131;SDS011;43005;52.922;5.742;2023-08-31T11:14:50;5.30;;;1.60;;
57131;SDS011;43005;52.922;5.742;2023-08-31T11:17:18;6.40;;;1.30;;
57131;SDS011;43005;52.922;5.742;2023-08-31T11:19:46;5.38;;;1.45;;
57131;SDS011;43005;52.922;5.742;2023-08-31T11:22:13;5.90;;;1.48;;
57131;SDS011;43005;52.922;5.742;2023-08-31T11:24:42;4.93;;;1.45;;
57131;SDS011;43005;52.922;5.742;2023-08-31T11:27:10;8.80;;;1.55;;
57131;SDS011;43005;52.922;5.742;2023-08-31T11:30:00;7.93;;;2.08;;
57131;SDS011;43005;52.922;5.742;2023-08-31T11:32:47;7.97;;;1.98;;
57131;SDS011;43005;52.922;5.742;2023-08-31T11:35:19;7.05;;;2.88;;
57131;SDS011;43005;52.922;5.742;2023-08-31T11:37:49;6.57;;;2.50;;
57131;SDS011;43005;52.922;5.742;2023-08-31T11:40:17;6.13;;;2.08;;
57131;SDS011;43005;52.922;5.742;2023-08-31T11:42:47;5.95;;;2.50;;
57131;SDS011;43005;52.922;5.742;2023-08-31T11:45:15;7.85;;;2.75;;
57131;SDS011;43005;52.922;5.742;2023-08-31T11:47:42;8.07;;;2.17;;
57131;SDS011;43005;52.922;5.742;2023-08-31T11:50:11;6.88;;;1.92;;
57131;SDS011;43005;52.922;5.742;2023-08-31T11:52:41;4.30;;;1.58;;
57131;SDS011;43005;52.922;5.742;2023-08-31T11:55:12;3.40;;;1.42;;
57131;SDS011;43005;52.922;5.742;2023-08-31T11:57:39;3.97;;;1.55;;
57131;SDS011;43005;52.922;5.742;2023-08-31T12:00:09;5.65;;;2.08;;
57131;SDS011;43005;52.922;5.742;2023-08-31T12:02:37;7.18;;;2.20;;
57131;SDS011;43005;52.922;5.742;2023-08-31T12:05:04;6.10;;;1.90;;
57131;SDS011;43005;52.922;5.742;2023-08-31T12:07:40;5.75;;;1.70;;
57131;SDS011;43005;52.922;5.742;2023-08-31T12:10:07;6.25;;;1.42;;
57131;SDS011;43005;52.922;5.742;2023-08-31T12:12:41;5.32;;;1.80;;
57131;SDS011;43005;52.922;5.742;2023-08-31T12:15:08;5.88;;;2.58;;
57131;SDS011;43005;52.922;5.742;2023-08-31T12:17:37;5.32;;;2.10;;
57131;SDS011;43005;52.922;5.742;2023-08-31T12:20:05;3.58;;;1.80;;
57131;SDS011;43005;52.922;5.742;2023-08-31T12:22:34;5.70;;;1.73;;
57131;SDS011;43005;52.922;5.742;2023-08-31T12:25:03;3.25;;;1.60;;
57131;SDS011;43005;52.922;5.742;2023-08-31T12:27:30;5.40;;;2.15;;
57131;SDS011;43005;52.922;5.742;2023-08-31T12:29:57;6.40;;;1.50;;
57131;SDS011;43005;52.922;5.742;2023-08-31T12:32:24;5.68;;;1.63;;
57131;SDS011;43005;52.922;5.742;2023-08-31T12:34:53;7.50;;;2.10;;
57131;SDS011;43005;52.922;5.742;2023-08-31T12:37:20;5.13;;;1.70;;
57131;SDS011;43005;52.922;5.742;2023-08-31T12:39:47;4.13;;;1.50;;
57131;SDS011;43005;52.922;5.742;2023-08-31T12:42:15;5.03;;;1.60;;
57131;SDS011;43005;52.922;5.742;2023-08-31T12:44:42;6.88;;;2.38;;
57131;SDS011;43005;52.922;5.742;2023-08-31T12:47:09;9.27;;;1.85;;
57131;SDS011;43005;52.922;5.742;2023-08-31T12:49:36;7.82;;;1.50;;
57131;SDS011;43005;52.922;5.742;2023-08-31T12:52:04;6.13;;;1.33;;
57131;SDS011;43005;52.922;5.742;2023-08-31T12:54:31;5.00;;;1.40;;
57131;SDS011;43005;52.922;5.742;2023-08-31T12:56:58;7.15;;;1.42;;
57131;SDS011;43005;52.922;5.742;2023-08-31T12:59:26;7.10;;;2.28;;
57131;SDS011;43005;52.922;5.742;2023-08-31T13:01:53;7.50;;;1.45;;
57131;SDS011;43005;52.922;5.742;2023-08-31T13:04:23;6.28;;;1.70;;
57131;SDS011;43005;52.922;5.742;2023-08-31T13:06:50;6.00;;;1.60;;
57131;SDS011;43005;52.922;5.742;2023-08-31T13:09:17;4.25;;;1.33;;
57131;SDS011;43005;52.922;5.742;2023-08-31T13:11:44;7.63;;;1.60;;
57131;SDS011;43005;52.922;5.742;2023-08-31T13:14:11;7.53;;;1.58;;
57131;SDS011;43005;52.922;5.742;2023-08-31T13:16:40;7.40;;;1.88;;
57131;SDS011;43005;52.922;5.742;2023-08-31T13:19:06;6.93;;;1.60;;
57131;SDS011;43005;52.922;5.742;2023-08-31T13:21:33;9.13;;;1.60;;
57131;SDS011;43005;52.922;5.742;2023-08-31T13:24:00;5.82;;;1.25;;
57131;SDS011;43005;52.922;5.742;2023-08-31T13:26:29;6.82;;;1.35;;
57131;SDS011;43005;52.922;5.742;2023-08-31T13:28:56;6.55;;;1.77;;
57131;SDS011;43005;52.922;5.742;2023-08-31T13:31:23;6.97;;;1.30;;
57131;SDS011;43005;52.922;5.742;2023-08-31T13:33:52;7.72;;;1.38;;
57131;SDS011;43005;52.922;5.742;2023-08-31T13:36:19;6.75;;;1.80;;
57131;SDS011;43005;52.922;5.742;2023-08-31T13:38:46;4.10;;;1.55;;
57131;SDS011;43005;52.922;5.742;2023-08-31T13:41:13;6.97;;;1.63;;
57131;SDS011;43005;52.922;5.742;2023-08-31T13:43:40;5.75;;;1.67;;
57131;SDS011;43005;52.922;5.742;2023-08-31T13:46:07;4.88;;;1.20;;
57131;SDS011;43005;52.922;5.742;2023-08-31T13:48:34;5.72;;;1.20;;
57131;SDS011;43005;52.922;5.742;2023-08-31T13:51:03;6.68;;;1.38;;
57131;SDS011;43005;52.922;5.742;2023-08-31T13:53:29;5.22;;;1.30;;
57131;SDS011;43005;52.922;5.742;2023-08-31T13:55:56;4.90;;;1.40;;
57131;SDS011;43005;52.922;5.742;2023-08-31T13:58:23;5.55;;;1.55;;
57131;SDS011;43005;52.922;5.742;2023-08-31T14:00:50;4.95;;;1.40;;
57131;SDS011;43005;52.922;5.742;2023-08-31T14:03:18;4.65;;;1.10;;
57131;SDS011;43005;52.922;5.742;2023-08-31T14:05:47;4.93;;;1.27;;
57131;SDS011;43005;52.922;5.742;2023-08-31T14:08:16;5.00;;;1.30;;
57131;SDS011;43005;52.922;5.742;2023-08-31T14:10:43;8.73;;;1.90;;
57131;SDS011;43005;52.922;5.742;2023-08-31T14:13:12;4.18;;;1.30;;
57131;SDS011;43005;52.922;5.742;2023-08-31T14:15:44;4.53;;;1.17;;
57131;SDS011;43005;52.922;5.742;2023-08-31T14:18:11;6.90;;;1.73;;
57131;SDS011;43005;52.922;5.742;2023-08-31T14:20:38;4.53;;;1.10;;
57131;SDS011;43005;52.922;5.742;2023-08-31T14:23:05;5.15;;;1.25;;
57131;SDS011;43005;52.922;5.742;2023-08-31T14:25:36;8.50;;;1.50;;
57131;SDS011;43005;52.922;5.742;2023-08-31T14:28:04;5.70;;;1.48;;
57131;SDS011;43005;52.922;5.742;2023-08-31T14:30:31;3.85;;;1.25;;
57131;SDS011;43005;52.922;5.742;2023-08-31T14:32:58;5.03;;;1.60;;
57131;SDS011;43005;52.922;5.742;2023-08-31T14:35:25;5.30;;;1.50;;
57131;SDS011;43005;52.922;5.742;2023-08-31T14:37:53;5.93;;;1.50;;
57131;SDS011;43005;52.922;5.742;2023-08-31T14:40:20;5.93;;;1.40;;
57131;SDS011;43005;52.922;5.742;2023-08-31T14:42:48;4.05;;;1.40;;
57131;SDS011;43005;52.922;5.742;2023-08-31T14:45:15;6.97;;;1.48;;
57131;SDS011;43005;52.922;5.742;2023-08-31T14:47:42;4.22;;;1.40;;
57131;SDS011;43005;52.922;5.742;2023-08-31T14:50:09;4.15;;;1.20;;
57131;SDS011;43005;52.922;5.742;2023-08-31T14:52:36;4.90;;;1.40;;